createdAt,value
2022-07-29T00:02:37.687Z,21.56
2022-07-29T00:06:34.701Z,21.53
2022-07-29T00:10:31.754Z,21.53
2022-07-29T00:14:30.021Z,21.49
2022-07-29T00:18:27.080Z,21.42
2022-07-29T00:22:27.318Z,21.48
2022-07-29T00:26:24.330Z,21.51
2022-07-29T00:30:21.450Z,21.26
2022-07-29T00:34:37.633Z,21.26
2022-07-29T00:38:34.660Z,20.99
2022-07-29T00:42:31.687Z,21.32
2022-07-29T00:46:28.678Z,21.24
2022-07-29T00:50:26.306Z,21.39
2022-07-29T00:54:23.306Z,21.21
2022-07-29T00:58:20.518Z,21.23
2022-07-29T01:02:17.612Z,21.23
2022-07-29T01:06:17.592Z,21.21
2022-07-29T01:10:17.700Z,21.29
2022-07-29T01:14:18.619Z,21.08
2022-07-29T01:18:39.025Z,21.06
2022-07-29T01:22:36.081Z,21.32
2022-07-29T01:26:59.980Z,21.30
2022-07-29T01:30:58.147Z,21.10
2022-07-29T01:35:07.398Z,21.39
2022-07-29T01:39:24.069Z,21.41
2022-07-29T01:43:32.246Z,21.06
2022-07-29T01:48:01.377Z,21.25
2022-07-29T01:52:12.524Z,21.20
2022-07-29T01:56:12.689Z,21.58
2022-07-29T02:00:11.831Z,21.66
2022-07-29T02:04:29.623Z,21.53
2022-07-29T02:08:30.576Z,21.67
2022-07-29T02:12:32.154Z,21.66
2022-07-29T02:16:33.266Z,21.47
2022-07-29T02:20:32.818Z,21.57
2022-07-29T02:24:32.163Z,21.11
2022-07-29T02:28:31.896Z,21.05
2022-07-29T02:32:31.128Z,20.77
2022-07-29T02:36:30.364Z,20.51
2022-07-29T02:40:27.816Z,20.63
2022-07-29T02:44:31.366Z,20.70
2022-07-29T02:48:59.722Z,20.66
2022-07-29T02:53:08.574Z,20.41
2022-07-29T02:57:18.231Z,20.17
2022-07-29T03:01:30.053Z,20.36
2022-07-29T03:05:28.522Z,20.25
2022-07-29T03:09:27.586Z,20.24
2022-07-29T03:13:26.665Z,20.13
2022-07-29T03:17:24.737Z,20.19
2022-07-29T03:21:21.889Z,20.31
2022-07-29T03:25:21.013Z,20.31
2022-07-29T03:29:18.078Z,20.21
2022-07-29T03:33:17.414Z,20.22
2022-07-29T03:37:14.375Z,20.21
2022-07-29T03:41:15.664Z,20.24
2022-07-29T03:45:19.121Z,20.14
2022-07-29T03:49:18.171Z,20.14
2022-07-29T03:53:15.543Z,20.15
2022-07-29T03:57:14.590Z,20.23
2022-07-29T04:01:12.821Z,20.31
2022-07-29T04:05:14.796Z,20.32
2022-07-29T04:09:13.113Z,20.39
2022-07-29T04:13:10.158Z,20.25
2022-07-29T04:17:07.218Z,20.22
2022-07-29T04:21:05.124Z,20.13
2022-07-29T04:25:04.186Z,20.30
2022-07-29T04:29:02.138Z,20.46
2022-07-29T04:33:01.836Z,20.45
2022-07-29T04:36:59.008Z,20.56
2022-07-29T04:40:55.966Z,20.76
2022-07-29T04:44:53.279Z,20.67
2022-07-29T04:48:50.459Z,20.74
2022-07-29T04:52:47.552Z,20.62
2022-07-29T04:56:44.667Z,20.84
2022-07-29T05:00:42.269Z,20.87
2022-07-29T05:04:39.292Z,21.09
2022-07-29T05:08:36.250Z,21.32
2022-07-29T05:12:33.367Z,21.20
2022-07-29T05:16:32.007Z,21.34
2022-07-29T05:20:30.595Z,21.43
2022-07-29T05:24:27.551Z,21.34
2022-07-29T05:28:24.568Z,21.50
2022-07-29T05:32:21.848Z,21.90
2022-07-29T05:36:19.316Z,21.95
2022-07-29T05:40:16.346Z,22.11
2022-07-29T05:44:14.759Z,22.18
2022-07-29T05:48:12.173Z,22.40
2022-07-29T05:52:10.562Z,22.70
2022-07-29T05:56:08.354Z,22.76
2022-07-29T06:00:06.337Z,22.75
2022-07-29T06:04:09.360Z,22.79
2022-07-29T06:08:09.505Z,22.71
2022-07-29T06:12:06.695Z,22.79
2022-07-29T06:16:03.996Z,22.78
2022-07-29T06:20:01.220Z,22.71
2022-07-29T06:23:58.187Z,22.74
2022-07-29T06:27:55.293Z,22.75
2022-07-29T06:31:52.433Z,22.43
2022-07-29T06:35:50.333Z,22.48
2022-07-29T06:40:10.657Z,22.59
2022-07-29T06:44:07.816Z,22.54
2022-07-29T06:48:05.425Z,22.57
2022-07-29T06:52:03.267Z,22.81
2022-07-29T06:56:02.089Z,23.43
2022-07-29T06:59:59.089Z,23.84
2022-07-29T07:03:56.216Z,24.22
2022-07-29T07:07:53.217Z,24.50
2022-07-29T07:11:52.429Z,24.77
2022-07-29T07:15:52.878Z,25.11
2022-07-29T07:19:49.864Z,25.20
2022-07-29T07:23:47.755Z,25.53
2022-07-29T07:27:46.957Z,25.81
2022-07-29T07:31:44.056Z,25.79
2022-07-29T07:35:43.267Z,25.95
2022-07-29T07:39:40.409Z,26.24
2022-07-29T07:43:37.472Z,26.40
2022-07-29T07:47:34.621Z,26.39
2022-07-29T07:51:31.706Z,26.95
2022-07-29T07:55:29.504Z,26.70
2022-07-29T07:59:30.101Z,27.01
2022-07-29T08:03:27.095Z,26.91
2022-07-29T08:07:24.732Z,26.96
2022-07-29T08:11:22.069Z,28.25
2022-07-29T08:15:19.056Z,29.27
2022-07-29T08:19:16.386Z,30.00
2022-07-29T08:23:13.478Z,29.40
2022-07-29T08:27:33.543Z,29.37
2022-07-29T08:31:29.222Z,29.73
2022-07-29T08:35:27.039Z,29.53
2022-07-29T08:39:25.899Z,29.69
2022-07-29T08:43:23.242Z,29.67
2022-07-29T08:47:20.228Z,29.21
2022-07-29T08:51:20.357Z,28.72
2022-07-29T08:55:21.436Z,28.68
2022-07-29T08:59:22.187Z,28.23
2022-07-29T09:03:23.957Z,28.58
2022-07-29T09:07:21.043Z,29.12
2022-07-29T09:11:18.332Z,28.92
2022-07-29T09:15:15.739Z,29.51
2022-07-29T09:19:29.936Z,29.44
2022-07-29T09:23:26.923Z,29.60
2022-07-29T09:27:27.667Z,28.41
2022-07-29T09:31:36.362Z,28.86
2022-07-29T09:35:36.682Z,29.06
2022-07-29T09:39:46.773Z,29.97
2022-07-29T09:43:58.468Z,29.83
2022-07-29T09:47:56.786Z,30.36
2022-07-29T09:52:09.622Z,31.05
2022-07-29T09:56:07.237Z,32.32
2022-07-29T10:00:16.036Z,32.79
2022-07-29T10:04:13.389Z,32.14
2022-07-29T10:08:13.501Z,32.03
2022-07-29T10:12:15.491Z,31.56
2022-07-29T10:16:14.852Z,31.26
2022-07-29T10:20:16.293Z,30.90
2022-07-29T10:24:14.609Z,31.75
2022-07-29T10:28:16.264Z,32.98
2022-07-29T10:32:41.481Z,33.77
2022-07-29T10:37:19.572Z,34.86
2022-07-29T10:41:59.376Z,34.64
2022-07-29T10:46:00.371Z,34.97
2022-07-29T10:50:03.919Z,35.68
2022-07-29T10:54:05.968Z,35.96
2022-07-29T10:58:19.463Z,35.37
2022-07-29T11:02:42.505Z,36.03
2022-07-29T11:06:59.673Z,34.75
2022-07-29T11:11:29.738Z,34.63
2022-07-29T11:15:28.781Z,34.30
2022-07-29T11:19:30.534Z,34.14
2022-07-29T11:23:34.851Z,34.17
2022-07-29T11:27:40.641Z,34.75
2022-07-29T11:31:44.353Z,36.69
2022-07-29T11:35:41.524Z,36.71
2022-07-29T11:39:43.517Z,35.35
2022-07-29T11:43:59.230Z,35.72
2022-07-29T11:48:32.137Z,36.00
2022-07-29T11:52:21.484Z,38.09
2022-07-29T11:56:25.688Z,37.59
2022-07-29T12:00:30.801Z,37.89
2022-07-29T12:04:28.401Z,38.89
2022-07-29T12:08:27.013Z,38.10
2022-07-29T12:12:25.056Z,36.17
2022-07-29T12:16:27.948Z,34.96
2022-07-29T12:20:30.410Z,34.69
2022-07-29T12:30:05.492Z,38.54
2022-07-29T12:34:03.187Z,38.62
2022-07-29T12:38:00.281Z,38.86
2022-07-29T12:42:03.842Z,38.37
2022-07-29T12:46:15.794Z,38.62
2022-07-29T12:50:22.110Z,39.28
2022-07-29T12:54:21.572Z,38.29
2022-07-29T12:58:30.869Z,37.80
2022-07-29T13:02:28.093Z,36.84
2022-07-29T13:06:45.809Z,34.56
2022-07-29T13:10:47.751Z,33.48
2022-07-29T13:14:50.974Z,32.83
2022-07-29T13:18:47.969Z,32.54
2022-07-29T13:22:49.447Z,31.90
2022-07-29T13:26:46.485Z,31.27
2022-07-29T13:30:44.909Z,30.62
2022-07-29T13:34:45.038Z,29.65
2022-07-29T13:38:42.067Z,27.87
2022-07-29T13:42:39.371Z,25.89
2022-07-29T13:46:36.374Z,25.02
2022-07-29T13:50:37.796Z,24.20
2022-07-29T13:54:42.157Z,23.80
2022-07-29T13:58:39.623Z,23.04
2022-07-29T14:02:36.654Z,22.40
2022-07-29T14:06:33.814Z,22.20
2022-07-29T14:10:31.674Z,22.03
2022-07-29T14:14:28.721Z,21.85
2022-07-29T14:18:26.089Z,21.78
2022-07-29T14:22:25.482Z,21.99
2022-07-29T14:26:24.274Z,22.04
2022-07-29T14:30:21.792Z,22.00
2022-07-29T14:34:19.028Z,22.02
2022-07-29T14:38:16.120Z,22.14
2022-07-29T14:42:14.193Z,22.41
2022-07-29T14:46:11.292Z,22.72
2022-07-29T14:50:09.953Z,23.13
2022-07-29T14:54:07.534Z,23.40
2022-07-29T14:58:10.957Z,24.07
2022-07-29T15:02:10.357Z,24.27
2022-07-29T15:06:07.445Z,23.88
2022-07-29T15:10:05.328Z,23.46
2022-07-29T15:14:05.741Z,23.14
2022-07-29T15:18:02.849Z,22.93
2022-07-29T15:22:00.267Z,23.07
2022-07-29T15:25:58.170Z,23.43
2022-07-29T15:29:55.135Z,23.83
2022-07-29T15:33:56.974Z,23.86
2022-07-29T15:37:55.412Z,24.09
2022-07-29T15:41:52.637Z,24.03
2022-07-29T15:46:09.204Z,23.95
2022-07-29T15:50:07.725Z,24.17
2022-07-29T15:54:05.495Z,24.24
2022-07-29T15:58:02.444Z,24.05
2022-07-29T16:02:01.120Z,24.12
2022-07-29T16:05:58.058Z,23.79
2022-07-29T16:09:55.065Z,23.97
2022-07-29T16:13:52.219Z,24.09
2022-07-29T16:17:50.626Z,24.13
2022-07-29T16:21:48.425Z,24.03
2022-07-29T16:26:01.478Z,23.91
2022-07-29T16:29:58.812Z,23.65
2022-07-29T16:33:58.619Z,23.52
2022-07-29T16:37:55.678Z,23.47
2022-07-29T16:41:54.913Z,23.35
2022-07-29T16:45:54.037Z,23.11
2022-07-29T16:49:52.798Z,22.87
2022-07-29T16:53:50.408Z,22.85
2022-07-29T16:57:47.700Z,22.51
2022-07-29T17:01:44.810Z,22.46
2022-07-29T17:05:52.774Z,22.39
2022-07-29T17:09:55.365Z,21.85
2022-07-29T17:13:52.959Z,21.23
2022-07-29T17:17:56.505Z,20.95
2022-07-29T17:22:01.012Z,20.98
2022-07-29T17:26:02.414Z,20.85
2022-07-29T17:29:59.652Z,21.04
2022-07-29T17:33:59.902Z,21.15
2022-07-29T17:37:57.882Z,21.22
2022-07-29T17:41:54.825Z,21.08
2022-07-29T17:45:52.727Z,21.23
2022-07-29T17:49:50.130Z,21.29
2022-07-29T17:53:47.088Z,21.40
2022-07-29T17:57:44.064Z,21.48
2022-07-29T18:01:43.803Z,21.48
2022-07-29T18:05:41.732Z,21.20
2022-07-29T18:09:38.880Z,21.20
2022-07-29T18:13:35.888Z,21.28
2022-07-29T18:17:48.378Z,21.41
2022-07-29T18:21:53.453Z,21.53
2022-07-29T18:25:52.384Z,21.41
2022-07-29T18:29:51.265Z,21.45
2022-07-29T18:33:48.575Z,21.39
2022-07-29T18:38:01.058Z,21.26
2022-07-29T18:41:59.676Z,20.77
2022-07-29T18:45:56.672Z,20.45
2022-07-29T18:49:54.281Z,20.54
2022-07-29T18:53:51.832Z,20.47
2022-07-29T18:57:55.522Z,20.61
2022-07-29T19:01:54.470Z,20.55
2022-07-29T19:05:51.858Z,20.56
2022-07-29T19:09:49.338Z,20.52
2022-07-29T19:13:46.799Z,20.42
2022-07-29T19:17:43.863Z,20.63
2022-07-29T19:21:41.520Z,20.42
2022-07-29T19:25:53.114Z,20.58
2022-07-29T19:29:50.854Z,20.66
2022-07-29T19:33:47.868Z,20.51
2022-07-29T19:37:44.889Z,20.81
2022-07-29T19:41:41.922Z,20.76
2022-07-29T19:45:39.106Z,20.44
2022-07-29T19:49:37.798Z,20.61
2022-07-29T19:53:34.776Z,20.71
2022-07-29T19:57:40.770Z,20.81
2022-07-29T20:01:38.415Z,20.79
2022-07-29T20:05:35.476Z,21.08
2022-07-29T20:09:32.560Z,20.99
2022-07-29T20:13:31.781Z,20.77
2022-07-29T20:17:29.052Z,20.60
2022-07-29T20:21:26.894Z,20.73
2022-07-29T20:25:24.355Z,20.84
2022-07-29T20:29:21.932Z,20.78
2022-07-29T20:33:19.249Z,20.52
2022-07-29T20:37:18.650Z,20.69
2022-07-29T20:41:15.809Z,20.84
2022-07-29T20:45:14.039Z,20.47
2022-07-29T20:49:11.940Z,20.36
2022-07-29T20:53:09.635Z,20.39
2022-07-29T20:57:06.887Z,20.60
2022-07-29T21:01:05.039Z,20.36
2022-07-29T21:05:02.101Z,20.49
2022-07-29T21:09:01.192Z,20.48
2022-07-29T21:12:58.707Z,20.36
2022-07-29T21:16:55.824Z,20.48
2022-07-29T21:20:58.092Z,20.36
2022-07-29T21:24:55.307Z,20.38
2022-07-29T21:28:52.404Z,20.46
2022-07-29T21:32:49.503Z,20.32
2022-07-29T21:36:48.684Z,20.39
2022-07-29T21:40:48.935Z,20.37
2022-07-29T21:44:46.047Z,20.20
2022-07-29T21:48:44.639Z,20.25
2022-07-29T21:52:41.839Z,20.19
2022-07-29T21:56:38.810Z,20.12
2022-07-29T22:00:35.851Z,20.08
2022-07-29T22:04:34.164Z,20.11
2022-07-29T22:08:31.340Z,19.91
2022-07-29T22:12:28.359Z,19.94
2022-07-29T22:16:25.986Z,20.09
2022-07-29T22:20:24.240Z,20.15
2022-07-29T22:24:21.289Z,19.96
2022-07-29T22:28:18.287Z,19.94
2022-07-29T22:32:15.268Z,19.92
2022-07-29T22:36:12.276Z,19.92
2022-07-29T22:40:09.796Z,20.03
2022-07-29T22:44:06.754Z,19.90
2022-07-29T22:48:04.409Z,19.82
2022-07-29T22:52:01.434Z,19.67
2022-07-29T22:55:58.461Z,19.54
2022-07-29T22:59:55.445Z,19.36
2022-07-29T23:03:52.442Z,19.34
2022-07-29T23:07:49.472Z,19.31
2022-07-29T23:11:47.221Z,19.50
2022-07-29T23:15:44.626Z,19.45
2022-07-29T23:19:41.613Z,19.45
2022-07-29T23:23:38.736Z,19.55
2022-07-29T23:27:36.429Z,19.57
2022-07-29T23:31:33.431Z,19.76
2022-07-29T23:35:39.045Z,19.68
2022-07-29T23:39:36.089Z,19.63
2022-07-29T23:43:33.028Z,19.41
2022-07-29T23:47:30.118Z,19.50
2022-07-29T23:51:29.186Z,19.51
2022-07-29T23:55:36.331Z,19.57
2022-07-29T23:59:36.149Z,19.53
